Estación Meteorológica Peña el Pijo (Robertgarden) [ 11/17/17 23:49:00 CET ]

Fecha Hora Presion(HPa) Temp (°C) Humedad % Rocio (°C) Viento ( m/s) Direccion Lluvia 1Hora(mm) Lluvia 24H(mm) LLuvia Total(mm)
2017-Sep-27 01:01:46 1013.800 11.9 79 8.4         1457.65
2017-Sep-27 02:01:48 1013.900 11.4 81 8.3         1457.65
2017-Sep-27 03:02:07 1014.100 10.9 83 8.1         1457.65
2017-Sep-27 04:01:55 1013.600 10.5 84 7.9         1457.65
2017-Sep-27 05:02:00 1013.700 9.9 85 7.4         1457.65
2017-Sep-27 06:02:17 1013.700 9.4 85 7.0         1457.65
2017-Sep-27 07:01:34 1013.800 9.0 86 6.8         1457.65
2017-Sep-27 08:01:30 1014.100 8.2 86 6.0         1457.65
2017-Sep-27 09:01:32 1014.400 8.6 87 6.6         1457.65
2017-Sep-27 10:01:34 1014.600 14.5 87 12.4         1457.65
2017-Sep-27 11:01:44 1014.600 18.9 70 13.3         1457.65
2017-Sep-27 12:01:37 1014.600 24.0 51 13.3         1457.65
2017-Sep-27 13:01:44 1013.900 26.6 39 11.5         1457.65
2017-Sep-27 14:02:00 1013.600 26.3 36 9.9         1457.65
2017-Sep-27 15:01:40 1013.300 27.3 30 8.2         1457.65
2017-Sep-27 16:01:54 1013.000 26.0 37 10.1         1457.65
2017-Sep-27 17:01:52 1012.800 26.4 37 10.5         1457.65
2017-Sep-27 18:01:47 1012.900 22.5 46 10.2 0.6 S     1457.65
2017-Sep-27 19:01:47 1013.300 21.8 50 10.9         1457.65
2017-Sep-27 20:01:43 1013.600 20.1 58 11.5         1457.65
2017-Sep-27 21:01:46 1014.300 18.8 64 11.8         1457.65
2017-Sep-27 22:01:41 1014.900 17.9 69 12.2         1457.65
2017-Sep-27 23:01:44 1015.200 17.3 73 12.4         1457.65

Temperatura Máxima:27°    Temperatura Mínima:
Presión Máxima:1015.200 Hpa    Presión Mínima:1012.800 Hpa


Volver